Aérodrome :
LOGIN :

S'inscrire | Disclaimer

   EN    FR    IT 

 










Légende :    VFR   VFR Marginal   IFR   IFR Intensif   IFR Très Intensif
Visi : 
Plafond : 
>= 8 km
>= 3000ft
5 à 8 km
1000 à 3000 ft
1500m à 5 km
500 à 1000 ft
800 à 1500m
200 à 500 ft
< 800m
< 200 ft
Symboles :   Orages  Brouillard  Fortes neiges  Fortes précipitations  Vent > 20 kt
SIGMETs :   Divers  Orages  Givrage  Turbulence  Onde Orograph.  Cendres Volcan.







- Altitude de l'aérodrome : -11 ft
- Code IATA : AMS


EHAM - Amsterdam Schiphol

DERNIER METAR :
  • 201355Z 22016KT 9999 SCT030 22/15 Q1013 NOSIG

METARs EXPIRÉS :
  • 201325Z 22014KT 180V240 9999 BKN028 21/15 Q1013 NOSIG
  • 201255Z 22017KT 9999 BKN028 21/14 Q1013 NOSIG
  • 201225Z 22016KT 190V250 9999 BKN028 21/15 Q1014 NOSIG
  • 201155Z 22013KT 9999 SCT026 20/15 Q1014 NOSIG
  • 201125Z 21015KT 9999 SCT024 21/15 Q1014 NOSIG

TAF TAF EHAM
Valide du 20 à 12h jusqu'au 21 à 18h UTC


201121Z 2012/2118 22016KT 9999 SCT025
BECMG 2015/2018 18006KT CAVOK
BECMG 2021/2024 19013KT
BECMG 2100/2103 20018G28KT
BECMG 2103/2105 21025G38KT
TEMPO 2105/2108 4000 RA -SHRA SCT018TCU BKN022
BECMG 2105/2107 23030G45KT SCT025
BECMG 2107/2109 26028G45KT
BECMG 2109/2112 25023G40KT
BECMG 2112/2115 24022G35KT
PROB40
TEMPO 2115/2118 25030G40KT 3000 SHRA TSRA SCT030CB BKN040
Pas de NOTAMs connus pour ce terrain.



MET'MAP, la Météo Aéronautique d'un coup d'oeil ! - Copyright ORBIFLY Décembre 2007 - Disclaimer

ORBIFLY MET'MAP TEAM :

Programmation & Développement : Alexandra Zaïnal
Conception & Développement : Baudouin d'Aumeries
Co-Programmation & Développement : Marc-Olivier Méhu
Soutien technique & logistique : Manuel Goepfert

Contact : metmap@orbifly.com




SOURCES & CREDITS :

   NOAA